sensor_id;sensor_type;location;lat;lon;timestamp;pressure;altitude;pressure_sealevel;temperature;humidity
61961;BME280;47923;42.506;24.192;2023-02-20T00:01:45;95669.47;;;8.18;57.50
61961;BME280;47923;42.506;24.192;2023-02-20T00:04:13;95700.28;;;8.32;58.05
61961;BME280;47923;42.506;24.192;2023-02-20T00:06:39;95715.66;;;8.32;57.41
61961;BME280;47923;42.506;24.192;2023-02-20T00:09:04;95707.22;;;8.21;57.99
61961;BME280;47923;42.506;24.192;2023-02-20T00:11:30;95633.56;;;7.65;58.74
61961;BME280;47923;42.506;24.192;2023-02-20T00:13:55;95698.38;;;7.96;58.99
61961;BME280;47923;42.506;24.192;2023-02-20T00:16:21;95710.69;;;7.97;59.25
61961;BME280;47923;42.506;24.192;2023-02-20T00:18:46;95655.94;;;7.44;59.51
61961;BME280;47923;42.506;24.192;2023-02-20T00:21:12;95712.72;;;7.88;59.42
61961;BME280;47923;42.506;24.192;2023-02-20T00:23:37;95665.03;;;7.52;59.92
61961;BME280;47923;42.506;24.192;2023-02-20T00:26:03;95650.06;;;7.30;60.20
61961;BME280;47923;42.506;24.192;2023-02-20T00:28:28;95720.16;;;7.70;60.61
61961;BME280;47923;42.506;24.192;2023-02-20T00:30:54;95727.00;;;7.68;60.18
61961;BME280;47923;42.506;24.192;2023-02-20T00:33:20;95678.31;;;7.36;60.33
61961;BME280;47923;42.506;24.192;2023-02-20T00:35:45;95651.69;;;7.10;60.87
61961;BME280;47923;42.506;24.192;2023-02-20T00:38:11;95727.84;;;7.47;60.86
61961;BME280;47923;42.506;24.192;2023-02-20T00:40:36;95735.34;;;7.42;61.71
61961;BME280;47923;42.506;24.192;2023-02-20T00:43:02;95723.91;;;7.45;61.60
61961;BME280;47923;42.506;24.192;2023-02-20T00:45:27;95718.34;;;7.50;61.58
61961;BME280;47923;42.506;24.192;2023-02-20T00:47:53;95720.03;;;7.55;61.25
61961;BME280;47923;42.506;24.192;2023-02-20T00:50:18;95707.25;;;7.52;61.46
61961;BME280;47923;42.506;24.192;2023-02-20T00:52:44;95624.31;;;6.96;61.47
61961;BME280;47923;42.506;24.192;2023-02-20T00:55:09;95697.81;;;7.45;61.57
61961;BME280;47923;42.506;24.192;2023-02-20T00:57:35;95703.41;;;7.40;61.68
61961;BME280;47923;42.506;24.192;2023-02-20T01:00:01;95572.13;;;6.52;61.98
61961;BME280;47923;42.506;24.192;2023-02-20T01:02:26;95618.53;;;6.73;62.40
61961;BME280;47923;42.506;24.192;2023-02-20T01:04:52;95708.09;;;7.31;62.28
61961;BME280;47923;42.506;24.192;2023-02-20T01:07:17;95574.09;;;6.43;62.45
61961;BME280;47923;42.506;24.192;2023-02-20T01:09:43;95705.81;;;7.21;62.87
61961;BME280;47923;42.506;24.192;2023-02-20T01:12:08;95608.84;;;6.60;62.60
61961;BME280;47923;42.506;24.192;2023-02-20T01:14:34;95706.94;;;7.20;62.89
61961;BME280;47923;42.506;24.192;2023-02-20T01:16:59;95711.72;;;7.14;62.92
61961;BME280;47923;42.506;24.192;2023-02-20T01:19:25;95601.66;;;6.52;62.39
61961;BME280;47923;42.506;24.192;2023-02-20T01:21:50;95489.47;;;5.82;62.39
61961;BME280;47923;42.506;24.192;2023-02-20T01:24:17;95696.44;;;7.27;62.50
61961;BME280;47923;42.506;24.192;2023-02-20T01:26:44;95647.63;;;7.04;62.61
61961;BME280;47923;42.506;24.192;2023-02-20T01:29:10;95559.03;;;6.50;61.99
61961;BME280;47923;42.506;24.192;2023-02-20T01:31:35;95649.69;;;7.19;62.15
61961;BME280;47923;42.506;24.192;2023-02-20T01:34:02;95610.97;;;6.87;62.62
61961;BME280;47923;42.506;24.192;2023-02-20T01:36:28;95667.22;;;7.38;62.16
61961;BME280;47923;42.506;24.192;2023-02-20T01:38:54;95663.63;;;7.34;62.19
61961;BME280;47923;42.506;24.192;2023-02-20T01:41:20;95618.41;;;7.03;62.39
61961;BME280;47923;42.506;24.192;2023-02-20T01:43:46;95653.50;;;7.18;62.53
61961;BME280;47923;42.506;24.192;2023-02-20T01:49:05;95677.22;;;7.16;62.70
61961;BME280;47923;42.506;24.192;2023-02-20T01:51:35;95609.69;;;6.73;63.09
61961;BME280;47923;42.506;24.192;2023-02-20T01:54:02;95697.06;;;7.24;62.67
61961;BME280;47923;42.506;24.192;2023-02-20T01:56:28;95629.19;;;6.82;63.09
61961;BME280;47923;42.506;24.192;2023-02-20T01:58:54;95706.59;;;7.22;62.72
61961;BME280;47923;42.506;24.192;2023-02-20T02:01:19;95700.22;;;7.26;62.87
61961;BME280;47923;42.506;24.192;2023-02-20T02:03:48;95662.97;;;7.04;62.67
61961;BME280;47923;42.506;24.192;2023-02-20T02:06:16;95700.88;;;7.23;63.03
61961;BME280;47923;42.506;24.192;2023-02-20T02:08:43;95694.72;;;7.23;62.86
61961;BME280;47923;42.506;24.192;2023-02-20T02:11:18;95703.44;;;7.19;63.55
61961;BME280;47923;42.506;24.192;2023-02-20T02:13:44;95710.25;;;7.17;64.05
61961;BME280;47923;42.506;24.192;2023-02-20T02:33:14;95660.63;;;6.81;64.29
61961;BME280;47923;42.506;24.192;2023-02-20T02:47:07;95767.63;;;7.21;65.22
61961;BME280;47923;42.506;24.192;2023-02-20T02:52:37;95706.53;;;6.68;66.29
61961;BME280;47923;42.506;24.192;2023-02-20T02:55:10;95775.94;;;7.07;66.57
61961;BME280;47923;42.506;24.192;2023-02-20T02:57:36;95699.06;;;6.52;66.98
61961;BME280;47923;42.506;24.192;2023-02-20T03:00:07;95602.38;;;5.90;66.83
61961;BME280;47923;42.506;24.192;2023-02-20T03:02:41;95716.47;;;6.46;67.03
61961;BME280;47923;42.506;24.192;2023-02-20T03:05:09;95656.41;;;6.30;67.33
61961;BME280;47923;42.506;24.192;2023-02-20T03:07:38;95757.97;;;6.99;67.44
61961;BME280;47923;42.506;24.192;2023-02-20T03:10:11;95684.56;;;6.45;67.27
61961;BME280;47923;42.506;24.192;2023-02-20T03:12:48;95746.91;;;6.80;67.72
61961;BME280;47923;42.506;24.192;2023-02-20T03:15:26;95777.34;;;7.05;67.16
61961;BME280;47923;42.506;24.192;2023-02-20T03:20:38;95782.16;;;6.99;68.31
61961;BME280;47923;42.506;24.192;2023-02-20T03:23:08;95520.56;;;5.24;68.49
61961;BME280;47923;42.506;24.192;2023-02-20T03:25:38;95796.75;;;6.89;68.40
61961;BME280;47923;42.506;24.192;2023-02-20T03:28:19;95773.34;;;6.69;68.59
61961;BME280;47923;42.506;24.192;2023-02-20T03:30:54;95801.22;;;6.85;68.66
61961;BME280;47923;42.506;24.192;2023-02-20T03:33:36;95748.94;;;6.53;68.81
61961;BME280;47923;42.506;24.192;2023-02-20T03:36:25;95807.56;;;7.02;68.27
61961;BME280;47923;42.506;24.192;2023-02-20T03:39:16;95760.03;;;6.73;68.18
61961;BME280;47923;42.506;24.192;2023-02-20T03:42:04;95800.03;;;6.95;68.08
61961;BME280;47923;42.506;24.192;2023-02-20T03:44:52;95775.03;;;6.74;67.95
61961;BME280;47923;42.506;24.192;2023-02-20T03:47:19;95793.34;;;6.80;67.70
61961;BME280;47923;42.506;24.192;2023-02-20T03:49:48;95776.03;;;6.69;67.70
61961;BME280;47923;42.506;24.192;2023-02-20T03:52:15;95804.16;;;6.92;67.22
61961;BME280;47923;42.506;24.192;2023-02-20T03:54:41;95808.28;;;6.90;67.38
61961;BME280;47923;42.506;24.192;2023-02-20T03:57:20;95813.78;;;6.93;67.30
61961;BME280;47923;42.506;24.192;2023-02-20T03:59:59;95675.06;;;5.97;66.95
61961;BME280;47923;42.506;24.192;2023-02-20T04:02:30;95651.25;;;5.87;66.80
61961;BME280;47923;42.506;24.192;2023-02-20T04:05:01;95801.78;;;6.70;67.29
61961;BME280;47923;42.506;24.192;2023-02-20T04:07:36;95819.63;;;6.66;67.57
61961;BME280;47923;42.506;24.192;2023-02-20T04:10:04;95807.97;;;6.62;68.05
61961;BME280;47923;42.506;24.192;2023-02-20T04:12:35;95828.84;;;6.56;68.00
61961;BME280;47923;42.506;24.192;2023-02-20T04:15:04;95829.78;;;6.52;68.32
61961;BME280;47923;42.506;24.192;2023-02-20T04:17:36;95832.47;;;6.52;68.08
61961;BME280;47923;42.506;24.192;2023-02-20T04:20:04;95695.66;;;5.67;68.53
61961;BME280;47923;42.506;24.192;2023-02-20T04:22:32;95784.63;;;6.16;68.63
61961;BME280;47923;42.506;24.192;2023-02-20T04:25:05;95755.53;;;5.97;68.96
61961;BME280;47923;42.506;24.192;2023-02-20T04:27:33;95826.53;;;6.37;68.71
61961;BME280;47923;42.506;24.192;2023-02-20T04:29:59;95591.56;;;4.75;69.38
61961;BME280;47923;42.506;24.192;2023-02-20T04:32:24;95840.78;;;6.29;68.92
61961;BME280;47923;42.506;24.192;2023-02-20T04:34:50;95811.19;;;6.00;69.86
61961;BME280;47923;42.506;24.192;2023-02-20T04:37:17;95843.78;;;6.28;70.21
61961;BME280;47923;42.506;24.192;2023-02-20T04:39:44;95773.56;;;5.62;70.42
61961;BME280;47923;42.506;24.192;2023-02-20T04:42:09;95853.28;;;6.17;70.18
61961;BME280;47923;42.506;24.192;2023-02-20T04:44:35;95846.03;;;6.08;70.86
61961;BME280;47923;42.506;24.192;2023-02-20T04:47:05;95835.81;;;5.85;70.85
61961;BME280;47923;42.506;24.192;2023-02-20T04:49:31;95719.72;;;5.20;71.38
61961;BME280;47923;42.506;24.192;2023-02-20T04:51:57;95570.00;;;4.11;71.74
61961;BME280;47923;42.506;24.192;2023-02-20T04:54:23;95808.09;;;5.63;71.57
61961;BME280;47923;42.506;24.192;2023-02-20T04:56:48;95693.28;;;4.92;71.44
61961;BME280;47923;42.506;24.192;2023-02-20T04:59:14;95824.00;;;5.68;72.56
61961;BME280;47923;42.506;24.192;2023-02-20T05:01:39;95874.66;;;5.96;71.97
61961;BME280;47923;42.506;24.192;2023-02-20T05:04:07;95778.81;;;5.32;71.91
61961;BME280;47923;42.506;24.192;2023-02-20T05:06:32;95792.50;;;5.39;72.29
61961;BME280;47923;42.506;24.192;2023-02-20T05:08:57;95879.34;;;5.90;71.95
61961;BME280;47923;42.506;24.192;2023-02-20T05:11:23;95882.84;;;5.91;71.87
61961;BME280;47923;42.506;24.192;2023-02-20T05:13:48;95803.88;;;5.36;72.26
61961;BME280;47923;42.506;24.192;2023-02-20T05:16:14;95736.88;;;4.84;71.97
61961;BME280;47923;42.506;24.192;2023-02-20T05:18:39;95909.16;;;5.89;72.72
61961;BME280;47923;42.506;24.192;2023-02-20T05:21:05;95916.44;;;5.88;71.94
61961;BME280;47923;42.506;24.192;2023-02-20T05:23:49;95875.56;;;5.65;72.39
61961;BME280;47923;42.506;24.192;2023-02-20T05:26:20;95925.75;;;5.99;72.09
61961;BME280;47923;42.506;24.192;2023-02-20T05:28:46;95915.31;;;6.06;71.18
61961;BME280;47923;42.506;24.192;2023-02-20T05:31:11;95914.84;;;6.13;71.03
61961;BME280;47923;42.506;24.192;2023-02-20T05:33:37;95814.72;;;5.48;69.88
61961;BME280;47923;42.506;24.192;2023-02-20T05:36:03;95921.28;;;6.21;70.41
61961;BME280;47923;42.506;24.192;2023-02-20T05:38:29;95944.19;;;6.27;69.59
61961;BME280;47923;42.506;24.192;2023-02-20T05:40:54;95650.00;;;4.64;69.17
61961;BME280;47923;42.506;24.192;2023-02-20T05:43:20;95718.16;;;5.10;69.28
61961;BME280;47923;42.506;24.192;2023-02-20T05:45:46;95920.44;;;6.46;68.73
61961;BME280;47923;42.506;24.192;2023-02-20T05:48:12;95886.75;;;6.19;68.50
61961;BME280;47923;42.506;24.192;2023-02-20T05:50:38;95909.22;;;6.53;68.50
61961;BME280;47923;42.506;24.192;2023-02-20T05:53:04;95933.22;;;6.58;68.33
61961;BME280;47923;42.506;24.192;2023-02-20T05:55:29;95934.63;;;6.64;68.24
61961;BME280;47923;42.506;24.192;2023-02-20T05:57:55;95891.72;;;6.38;68.10
61961;BME280;47923;42.506;24.192;2023-02-20T06:00:21;95921.34;;;6.59;67.27
61961;BME280;47923;42.506;24.192;2023-02-20T06:02:47;95900.03;;;6.62;67.15
61961;BME280;47923;42.506;24.192;2023-02-20T06:05:13;95941.16;;;6.92;66.82
61961;BME280;47923;42.506;24.192;2023-02-20T06:07:38;95845.22;;;6.25;66.52
61961;BME280;47923;42.506;24.192;2023-02-20T06:10:05;95944.41;;;7.07;65.82
61961;BME280;47923;42.506;24.192;2023-02-20T06:12:30;95944.66;;;7.23;64.98
61961;BME280;47923;42.506;24.192;2023-02-20T06:14:56;95924.31;;;7.13;64.55
61961;BME280;47923;42.506;24.192;2023-02-20T06:17:21;95968.94;;;7.56;63.88
61961;BME280;47923;42.506;24.192;2023-02-20T06:19:48;95950.09;;;7.64;63.26
61961;BME280;47923;42.506;24.192;2023-02-20T06:22:15;95949.59;;;8.46;61.58
61961;BME280;47923;42.506;24.192;2023-02-20T06:24:44;95877.03;;;11.42;49.87
61961;BME280;47923;42.506;24.192;2023-02-20T06:27:10;95911.59;;;13.82;43.46
61961;BME280;47923;42.506;24.192;2023-02-20T06:29:35;95912.16;;;15.55;39.32
61961;BME280;47923;42.506;24.192;2023-02-20T06:32:01;95873.31;;;16.41;35.74
61961;BME280;47923;42.506;24.192;2023-02-20T06:34:26;95920.63;;;17.06;34.72
61961;BME280;47923;42.506;24.192;2023-02-20T06:36:55;95921.41;;;17.38;33.47
61961;BME280;47923;42.506;24.192;2023-02-20T06:39:21;95900.31;;;17.78;32.31
61961;BME280;47923;42.506;24.192;2023-02-20T06:41:46;95949.84;;;17.98;32.00
61961;BME280;47923;42.506;24.192;2023-02-20T06:44:12;95929.13;;;18.04;31.44
61961;BME280;47923;42.506;24.192;2023-02-20T06:46:37;95894.50;;;18.71;30.30
61961;BME280;47923;42.506;24.192;2023-02-20T06:49:03;95951.22;;;19.33;29.06
61961;BME280;47923;42.506;24.192;2023-02-20T06:51:32;95950.03;;;19.30;29.45
61961;BME280;47923;42.506;24.192;2023-02-20T06:53:59;95913.47;;;19.55;28.59
61961;BME280;47923;42.506;24.192;2023-02-20T06:56:27;95931.41;;;19.08;28.95
61961;BME280;47923;42.506;24.192;2023-02-20T06:58:54;95942.03;;;19.57;28.45
61961;BME280;47923;42.506;24.192;2023-02-20T07:01:22;95952.56;;;19.63;28.64
61961;BME280;47923;42.506;24.192;2023-02-20T07:03:49;95953.34;;;19.59;28.48
61961;BME280;47923;42.506;24.192;2023-02-20T07:06:15;95950.28;;;19.50;28.39
61961;BME280;47923;42.506;24.192;2023-02-20T07:08:41;95940.69;;;19.76;28.31
61961;BME280;47923;42.506;24.192;2023-02-20T07:11:07;95943.81;;;20.54;27.12
61961;BME280;47923;42.506;24.192;2023-02-20T07:13:32;95930.94;;;21.59;26.13
61961;BME280;47923;42.506;24.192;2023-02-20T07:15:58;95921.31;;;21.70;24.96
61961;BME280;47923;42.506;24.192;2023-02-20T07:18:24;95886.91;;;22.05;24.42
61961;BME280;47923;42.506;24.192;2023-02-20T07:20:53;95936.41;;;23.05;24.13
61961;BME280;47923;42.506;24.192;2023-02-20T07:23:18;95766.41;;;22.17;23.69
61961;BME280;47923;42.506;24.192;2023-02-20T07:25:44;95906.00;;;22.72;23.55
61961;BME280;47923;42.506;24.192;2023-02-20T07:28:09;95912.16;;;22.60;23.87
61961;BME280;47923;42.506;24.192;2023-02-20T07:30:35;95954.72;;;22.95;23.53
61961;BME280;47923;42.506;24.192;2023-02-20T07:33:00;95833.38;;;20.42;25.20
61961;BME280;47923;42.506;24.192;2023-02-20T07:35:26;95950.63;;;19.56;27.55
61961;BME280;47923;42.506;24.192;2023-02-20T07:37:51;95964.41;;;19.94;27.67
61961;BME280;47923;42.506;24.192;2023-02-20T07:40:17;95950.50;;;20.15;27.28
61961;BME280;47923;42.506;24.192;2023-02-20T07:42:42;95960.66;;;21.67;25.58
61961;BME280;47923;42.506;24.192;2023-02-20T07:45:09;95866.03;;;21.18;24.94
61961;BME280;47923;42.506;24.192;2023-02-20T07:47:35;95961.66;;;21.77;24.50
61961;BME280;47923;42.506;24.192;2023-02-20T07:50:01;95963.63;;;22.00;24.60
61961;BME280;47923;42.506;24.192;2023-02-20T07:52:26;95956.59;;;22.42;24.27
61961;BME280;47923;42.506;24.192;2023-02-20T07:54:51;95939.91;;;22.89;23.12
61961;BME280;47923;42.506;24.192;2023-02-20T07:57:17;95949.53;;;21.98;23.52
61961;BME280;47923;42.506;24.192;2023-02-20T07:59:42;95894.03;;;21.79;23.62
61961;BME280;47923;42.506;24.192;2023-02-20T08:02:08;95955.78;;;22.22;23.43
61961;BME280;47923;42.506;24.192;2023-02-20T08:04:33;95832.31;;;20.63;23.87
61961;BME280;47923;42.506;24.192;2023-02-20T08:06:59;95860.09;;;20.96;24.24
61961;BME280;47923;42.506;24.192;2023-02-20T08:09:24;95928.75;;;21.23;23.56
61961;BME280;47923;42.506;24.192;2023-02-20T08:11:50;95947.84;;;21.34;23.83
61961;BME280;47923;42.506;24.192;2023-02-20T08:14:16;95881.75;;;21.14;23.49
61961;BME280;47923;42.506;24.192;2023-02-20T08:16:41;95930.25;;;21.28;23.46
61961;BME280;47923;42.506;24.192;2023-02-20T08:19:07;95931.81;;;21.29;23.59
61961;BME280;47923;42.506;24.192;2023-02-20T08:21:32;95933.28;;;21.06;24.10
61961;BME280;47923;42.506;24.192;2023-02-20T08:23:57;95845.94;;;20.09;24.10
61961;BME280;47923;42.506;24.192;2023-02-20T08:26:23;95940.69;;;21.40;23.43
61961;BME280;47923;42.506;24.192;2023-02-20T08:28:49;95925.81;;;21.07;23.27
61961;BME280;47923;42.506;24.192;2023-02-20T08:31:15;95848.44;;;19.59;24.37
61961;BME280;47923;42.506;24.192;2023-02-20T08:33:40;95931.88;;;20.67;23.88
61961;BME280;47923;42.506;24.192;2023-02-20T08:36:06;95926.44;;;20.64;23.79
61961;BME280;47923;42.506;24.192;2023-02-20T08:38:34;95906.31;;;20.06;24.08
61961;BME280;47923;42.506;24.192;2023-02-20T08:41:09;95945.09;;;20.04;24.29
61961;BME280;47923;42.506;24.192;2023-02-20T08:43:39;95941.09;;;19.75;24.61
61961;BME280;47923;42.506;24.192;2023-02-20T08:46:05;95957.78;;;18.84;24.98
61961;BME280;47923;42.506;24.192;2023-02-20T08:48:32;95912.28;;;19.52;24.71
61961;BME280;47923;42.506;24.192;2023-02-20T08:50:57;95874.53;;;18.77;24.51
61961;BME280;47923;42.506;24.192;2023-02-20T08:53:23;95853.44;;;19.68;23.62
61961;BME280;47923;42.506;24.192;2023-02-20T08:55:48;95940.31;;;21.38;22.57
61961;BME280;47923;42.506;24.192;2023-02-20T08:58:19;95918.88;;;21.52;22.48
61961;BME280;47923;42.506;24.192;2023-02-20T09:00:44;95886.91;;;22.05;21.40
61961;BME280;47923;42.506;24.192;2023-02-20T09:03:10;95954.59;;;21.25;21.73
61961;BME280;47923;42.506;24.192;2023-02-20T09:05:35;95938.44;;;21.04;22.00
61961;BME280;47923;42.506;24.192;2023-02-20T09:08:01;95929.25;;;21.41;21.53
61961;BME280;47923;42.506;24.192;2023-02-20T09:10:30;95934.75;;;21.65;21.79
61961;BME280;47923;42.506;24.192;2023-02-20T09:12:56;95937.56;;;22.08;21.74
61961;BME280;47923;42.506;24.192;2023-02-20T09:15:21;95900.72;;;21.08;21.04
61961;BME280;47923;42.506;24.192;2023-02-20T09:17:48;95798.72;;;20.25;21.44
61961;BME280;47923;42.506;24.192;2023-02-20T09:20:15;95937.66;;;21.04;21.35
61961;BME280;47923;42.506;24.192;2023-02-20T09:22:40;95941.69;;;22.20;19.97
61961;BME280;47923;42.506;24.192;2023-02-20T09:25:06;95894.41;;;21.82;19.24
61961;BME280;47923;42.506;24.192;2023-02-20T09:27:33;95915.09;;;21.43;18.91
61961;BME280;47923;42.506;24.192;2023-02-20T09:29:59;95938.00;;;21.60;19.33
61961;BME280;47923;42.506;24.192;2023-02-20T09:32:24;95856.72;;;20.24;20.43
61961;BME280;47923;42.506;24.192;2023-02-20T09:34:50;95912.84;;;20.53;20.38
61961;BME280;47923;42.506;24.192;2023-02-20T09:37:15;95909.00;;;21.32;20.20
61961;BME280;47923;42.506;24.192;2023-02-20T09:39:41;95965.81;;;21.89;18.79
61961;BME280;47923;42.506;24.192;2023-02-20T09:45:10;95956.25;;;22.17;18.69
61961;BME280;47923;42.506;24.192;2023-02-20T09:48:33;95872.28;;;21.89;19.75
61961;BME280;47923;42.506;24.192;2023-02-20T09:50:56;95917.78;;;21.19;18.68
61961;BME280;47923;42.506;24.192;2023-02-20T09:53:42;95944.88;;;19.88;20.08
61961;BME280;47923;42.506;24.192;2023-02-20T09:56:22;95946.59;;;20.81;19.05
61961;BME280;47923;42.506;24.192;2023-02-20T10:01:43;95932.72;;;20.91;18.91
61961;BME280;47923;42.506;24.192;2023-02-20T10:04:20;95942.66;;;21.63;18.16
61961;BME280;47923;42.506;24.192;2023-02-20T10:06:50;95933.13;;;21.44;19.40
61961;BME280;47923;42.506;24.192;2023-02-20T10:09:16;95875.69;;;20.41;19.43
61961;BME280;47923;42.506;24.192;2023-02-20T10:14:37;95936.66;;;19.88;19.70
61961;BME280;47923;42.506;24.192;2023-02-20T10:20:53;95943.41;;;20.18;20.02
61961;BME280;47923;42.506;24.192;2023-02-20T10:23:46;95932.63;;;19.58;20.42
61961;BME280;47923;42.506;24.192;2023-02-20T10:26:28;95939.00;;;19.41;19.96
61961;BME280;47923;42.506;24.192;2023-02-20T10:29:00;95930.13;;;19.26;19.90
61961;BME280;47923;42.506;24.192;2023-02-20T10:31:42;95912.25;;;19.59;19.42
61961;BME280;47923;42.506;24.192;2023-02-20T10:34:17;95925.84;;;20.49;19.27
61961;BME280;47923;42.506;24.192;2023-02-20T10:36:50;95930.13;;;19.23;19.86
61961;BME280;47923;42.506;24.192;2023-02-20T10:39:19;95892.50;;;17.87;20.83
61961;BME280;47923;42.506;24.192;2023-02-20T10:42:07;95934.09;;;18.41;20.26
61961;BME280;47923;42.506;24.192;2023-02-20T10:50:15;95916.72;;;20.22;19.03
61961;BME280;47923;42.506;24.192;2023-02-20T10:53:02;95863.34;;;19.10;18.61
61961;BME280;47923;42.506;24.192;2023-02-20T11:01:09;95763.34;;;19.73;18.50
61961;BME280;47923;42.506;24.192;2023-02-20T11:03:46;95807.38;;;19.55;18.95
61961;BME280;47923;42.506;24.192;2023-02-20T11:06:16;95925.53;;;20.70;18.48
61961;BME280;47923;42.506;24.192;2023-02-20T11:08:42;95930.25;;;20.70;18.66
61961;BME280;47923;42.506;24.192;2023-02-20T11:11:22;95912.50;;;19.24;19.61
61961;BME280;47923;42.506;24.192;2023-02-20T11:13:49;95865.38;;;18.29;20.15
61961;BME280;47923;42.506;24.192;2023-02-20T11:16:39;95911.06;;;19.60;19.81
61961;BME280;47923;42.506;24.192;2023-02-20T11:19:12;95809.84;;;19.43;19.79
61961;BME280;47923;42.506;24.192;2023-02-20T11:21:41;95925.25;;;19.48;19.20
61961;BME280;47923;42.506;24.192;2023-02-20T11:24:32;95912.81;;;19.81;19.00
61961;BME280;47923;42.506;24.192;2023-02-20T11:27:02;95908.06;;;19.44;20.01
61961;BME280;47923;42.506;24.192;2023-02-20T11:29:34;95848.03;;;19.60;19.73
61961;BME280;47923;42.506;24.192;2023-02-20T11:34:46;95886.44;;;19.98;19.24
61961;BME280;47923;42.506;24.192;2023-02-20T11:37:12;95924.69;;;20.09;19.66
61961;BME280;47923;42.506;24.192;2023-02-20T11:39:45;95904.81;;;19.12;19.55
61961;BME280;47923;42.506;24.192;2023-02-20T11:42:14;95922.75;;;19.16;19.72
61961;BME280;47923;42.506;24.192;2023-02-20T11:44:42;95807.09;;;19.84;19.20
61961;BME280;47923;42.506;24.192;2023-02-20T11:47:23;95907.69;;;19.87;19.11
61961;BME280;47923;42.506;24.192;2023-02-20T11:49:49;95931.91;;;18.92;20.13
61961;BME280;47923;42.506;24.192;2023-02-20T11:52:32;95933.38;;;18.27;20.75
61961;BME280;47923;42.506;24.192;2023-02-20T11:55:20;95940.13;;;17.19;21.49
61961;BME280;47923;42.506;24.192;2023-02-20T11:57:47;95854.53;;;16.11;22.27
61961;BME280;47923;42.506;24.192;2023-02-20T12:00:20;95944.31;;;16.70;22.31
61961;BME280;47923;42.506;24.192;2023-02-20T12:02:55;95931.53;;;16.01;22.69
61961;BME280;47923;42.506;24.192;2023-02-20T12:05:43;95940.38;;;15.77;23.30
61961;BME280;47923;42.506;24.192;2023-02-20T12:08:59;95933.13;;;15.47;23.93
61961;BME280;47923;42.506;24.192;2023-02-20T12:11:26;95932.41;;;15.06;24.30
61961;BME280;47923;42.506;24.192;2023-02-20T12:13:55;95922.41;;;15.17;24.58
61961;BME280;47923;42.506;24.192;2023-02-20T12:19:25;95927.94;;;15.31;23.67
61961;BME280;47923;42.506;24.192;2023-02-20T12:25:11;95927.00;;;15.09;24.75
61961;BME280;47923;42.506;24.192;2023-02-20T12:27:52;95929.38;;;14.74;24.51
61961;BME280;47923;42.506;24.192;2023-02-20T12:35:35;95943.88;;;14.85;25.57
61961;BME280;47923;42.506;24.192;2023-02-20T12:38:20;95924.06;;;14.88;25.32
61961;BME280;47923;42.506;24.192;2023-02-20T12:49:50;95912.72;;;15.23;19.01
61961;BME280;47923;42.506;24.192;2023-02-20T12:58:20;95937.28;;;14.86;16.04
61961;BME280;47923;42.506;24.192;2023-02-20T13:01:05;95904.41;;;14.64;16.06
61961;BME280;47923;42.506;24.192;2023-02-20T13:06:35;95933.00;;;14.48;15.83
61961;BME280;47923;42.506;24.192;2023-02-20T13:11:42;95930.00;;;14.26;16.37
61961;BME280;47923;42.506;24.192;2023-02-20T13:22:28;95939.81;;;14.04;16.85
61961;BME280;47923;42.506;24.192;2023-02-20T13:28:01;95880.44;;;13.46;17.03
61961;BME280;47923;42.506;24.192;2023-02-20T13:30:31;95936.22;;;13.97;15.66
61961;BME280;47923;42.506;24.192;2023-02-20T13:33:21;95944.31;;;13.93;15.68
61961;BME280;47923;42.506;24.192;2023-02-20T13:35:54;95947.09;;;13.97;15.49
61961;BME280;47923;42.506;24.192;2023-02-20T13:38:21;95947.78;;;13.90;15.47
61961;BME280;47923;42.506;24.192;2023-02-20T13:46:09;95954.69;;;13.88;16.13
61961;BME280;47923;42.506;24.192;2023-02-20T13:58:49;95964.09;;;13.18;18.75
61961;BME280;47923;42.506;24.192;2023-02-20T14:01:15;95813.34;;;12.02;17.10
61961;BME280;47923;42.506;24.192;2023-02-20T14:03:41;95966.69;;;13.11;18.47
61961;BME280;47923;42.506;24.192;2023-02-20T14:06:10;95973.00;;;13.18;18.89
61961;BME280;47923;42.506;24.192;2023-02-20T14:08:42;95980.16;;;13.07;17.77
61961;BME280;47923;42.506;24.192;2023-02-20T14:11:12;95989.94;;;13.12;19.67
61961;BME280;47923;42.506;24.192;2023-02-20T14:13:41;95956.06;;;12.79;19.43
61961;BME280;47923;42.506;24.192;2023-02-20T14:19:01;95759.34;;;11.51;19.84
61961;BME280;47923;42.506;24.192;2023-02-20T14:21:28;95948.72;;;12.60;20.47
61961;BME280;47923;42.506;24.192;2023-02-20T14:23:54;95990.34;;;12.91;21.18
61961;BME280;47923;42.506;24.192;2023-02-20T14:26:32;95986.84;;;12.90;21.32
61961;BME280;47923;42.506;24.192;2023-02-20T14:28:59;95988.22;;;12.81;22.55
61961;BME280;47923;42.506;24.192;2023-02-20T14:33:59;96004.34;;;12.54;24.43
61961;BME280;47923;42.506;24.192;2023-02-20T14:42:05;95991.41;;;11.74;26.48
61961;BME280;47923;42.506;24.192;2023-02-20T14:44:37;96014.75;;;11.62;27.36
61961;BME280;47923;42.506;24.192;2023-02-20T14:47:13;95969.66;;;11.19;27.58
61961;BME280;47923;42.506;24.192;2023-02-20T14:49:40;95894.09;;;10.63;27.51
61961;BME280;47923;42.506;24.192;2023-02-20T14:54:35;96015.63;;;11.35;28.63
61961;BME280;47923;42.506;24.192;2023-02-20T14:57:01;96013.88;;;11.27;28.36
61961;BME280;47923;42.506;24.192;2023-02-20T14:59:38;96007.75;;;11.14;28.05
61961;BME280;47923;42.506;24.192;2023-02-20T15:05:05;95917.06;;;10.41;28.78
61961;BME280;47923;42.506;24.192;2023-02-20T15:07:32;96019.34;;;10.99;29.51
61961;BME280;47923;42.506;24.192;2023-02-20T15:10:00;96027.25;;;10.92;30.00
61961;BME280;47923;42.506;24.192;2023-02-20T15:12:40;95911.63;;;10.13;30.88
61961;BME280;47923;42.506;24.192;2023-02-20T15:15:10;96022.22;;;10.90;30.65
61961;BME280;47923;42.506;24.192;2023-02-20T15:17:39;96026.72;;;10.86;30.87
61961;BME280;47923;42.506;24.192;2023-02-20T15:25:40;96018.53;;;10.83;31.44
61961;BME280;47923;42.506;24.192;2023-02-20T15:30:59;96001.66;;;10.58;31.98
61961;BME280;47923;42.506;24.192;2023-02-20T15:33:24;96015.16;;;10.58;32.23